Thunder radar more information blitzortung!


Radar de pluja more information rain snow radar


Visita la nostra xarxa de llocs de meteo:

Template documentation
and downloads

And another site



No particular awareness of the weather is required.    There are no Weather-warnings

Pagina Historial Weather Underground text

Diari Resum Setembre 23, 2017 Unitats:  Imperial    Mètric   Tant
« Previous Dia
SegĂźent Dia »
Diari Setmana Mensual Anual Personalitzada
  Maxima: Minima: Media:
Temperatura: 79.9 °F 58.3 °F 71.8 °F
Punt de rosada: 62.8 °F 55.4 °F 60.3 °F
Humitat: 90 % 53 % 68 %
Wind Speed: 12.7 mph 0 mph 3.3 mph
RĂ fegues de vent: 12.7 mph - -
Vent:- - SSW
Pression baro: 30.2 in 30.1 in -
Precipitacions: 0 in    
Historical Graphs
 
 
Dades de taula per Setembre 23, 2017
Temps Temperatura Punt de rosada Pression baro Vent Wind Speed RĂ fegues de vent Humitat Rainfall Rate (Hourly)
00:03 62.8 °F 57.2 °F 30.2 in Calm     82 % 0 in
00:08 63 °F 57.4 °F 30.2 in Calm     82 % 0 in
04:10 58.3 °F 55.4 °F 30.2 in WNW 1 mph 2 mph 90 % 0 in
04:20 58.6 °F 55.8 °F 30.2 in WNW 2 mph 2 mph 90 % 0 in
04:30 59 °F 56.1 °F 30.2 in Calm   2 mph 90 % 0 in
04:40 59.7 °F 56.8 °F 30.2 in Calm   1 mph 90 % 0 in
04:50 60.6 °F 57.7 °F 30.2 in Calm   1 mph 90 % 0 in
05:00 61.7 °F 58.1 °F 30.2 in SSE 1 mph 3 mph 88 % 0 in
05:10 63.3 °F 58.6 °F 30.2 in Calm   3 mph 85 % 0 in
05:20 64.4 °F 58.8 °F 30.2 in NE 1 mph 2 mph 82 % 0 in
05:30 66.6 °F 59.7 °F 30.2 in Calm   2 mph 79 % 0 in
05:40 66.7 °F 59.4 °F 30.2 in NW 1 mph 2 mph 77 % 0 in
05:50 66.9 °F 59.2 °F 30.2 in NNW 1 mph 2 mph 76 % 0 in
06:00 67.5 °F 59.4 °F 30.2 in NNE 1 mph 4 mph 75 % 0 in
06:10 67.8 °F 59.5 °F 30.2 in NE 3 mph 3 mph 75 % 0 in
06:20 68.2 °F 59.2 °F 30.2 in NE 3 mph 3 mph 73 % 0 in
06:30 68.2 °F 58.8 °F 30.2 in NE 2 mph 4 mph 72 % 0 in
06:40 68.9 °F 59.5 °F 30.2 in NNE 2 mph 4 mph 72 % 0 in
06:50 68.9 °F 58.6 °F 30.2 in NE 3 mph 4 mph 70 % 0 in
07:00 69.8 °F 59.5 °F 30.2 in NE 3 mph 3 mph 70 % 0 in
08:00 73.6 °F 60.6 °F 30.2 in East 2 mph 3 mph 64 % 0 in
12:09 71.1 °F 60.4 °F 30.2 in West 2 mph 2.2 mph 69 % 0 in
12:14 70.7 °F 59.5 °F 30.2 in NNE 2.3 mph 2.3 mph 68 % 0 in
12:19 70.9 °F 59.7 °F 30.2 in NNE 1.6 mph 1.6 mph 68 % 0 in
12:24 71.8 °F 59.7 °F 30.2 in NE 1.2 mph 1.2 mph 66 % 0 in
12:29 72.3 °F 59.9 °F 30.2 in SE 2.9 mph 2.9 mph 65 % 0 in
12:34 73 °F 59.7 °F 30.2 in SSE 2.3 mph 2.3 mph 63 % 0 in
12:39 72.5 °F 59.2 °F 30.2 in East 4.6 mph 4.6 mph 63 % 0 in
12:44 73.6 °F 61.2 °F 30.2 in ESE 2.3 mph 2.3 mph 65 % 0 in
13:07 75.9 °F 62.1 °F 30.2 in SW 4.6 mph 4.6 mph 62 % 0 in
13:12 76.5 °F 61.5 °F 30.2 in South 4.6 mph 4.6 mph 60 % 0 in
13:17 77.4 °F 61.9 °F 30.2 in SW 4.9 mph 4.9 mph 59 % 0 in
13:22 77.2 °F 61.7 °F 30.2 in SSW 4.6 mph 4.6 mph 59 % 0 in
13:27 77.5 °F 61.5 °F 30.2 in SSE 2.4 mph 2.4 mph 58 % 0 in
13:32 76.8 °F 61 °F 30.2 in South 3.5 mph 3.5 mph 58 % 0 in
13:37 77.7 °F 61.9 °F 30.2 in SSE 2.2 mph 2.2 mph 58 % 0 in
13:42 78.1 °F 62.1 °F 30.2 in WNW 3.5 mph 3.5 mph 58 % 0 in
13:47 78.1 °F 62.1 °F 30.2 in SW 4.6 mph 4.6 mph 58 % 0 in
13:52 78.1 °F 61.5 °F 30.2 in SW 5.8 mph 5.8 mph 57 % 0 in
13:57 77.9 °F 59.4 °F 30.2 in South 6.9 mph 6.9 mph 53 % 0 in
14:02 78.3 °F 60.8 °F 30.2 in South 2.3 mph 2.3 mph 55 % 0 in
14:07 79.3 °F 62.2 °F 30.2 in SSW 4.6 mph 4.6 mph 56 % 0 in
14:12 79 °F 61.3 °F 30.2 in WSW 4.6 mph 4.6 mph 55 % 0 in
14:17 78.8 °F 61.3 °F 30.2 in WSW 3.1 mph 3.1 mph 55 % 0 in
14:22 78.3 °F 60.3 °F 30.2 in SSE 1.2 mph   54 % 0 in
14:27 78.1 °F 59.5 °F 30.2 in NNE 5.8 mph 5.8 mph 53 % 0 in
14:33 76.5 °F 59.2 °F 30.2 in SE 4.9 mph 4.9 mph 55 % 0 in
14:38 75.7 °F 58.8 °F 30.2 in ESE 8.1 mph 8.1 mph 56 % 0 in
14:43 75.2 °F 58.8 °F 30.2 in SSE 7.1 mph 7.1 mph 57 % 0 in
14:48 75.7 °F 59.9 °F 30.2 in East 4.6 mph 4.6 mph 58 % 0 in
14:58 75 °F 60.6 °F 30.2 in East 10.4 mph 10.4 mph 61 % 0 in
15:03 74.8 °F 61 °F 30.1 in SSE 5.8 mph 5.8 mph 62 % 0 in
15:08 75.7 °F 61.3 °F 30.1 in SSW 4.6 mph 4.6 mph 61 % 0 in
15:13 76.3 °F 61.3 °F 30.1 in ESE 2.3 mph 2.3 mph 60 % 0 in
15:18 77.5 °F 62.1 °F 30.1 in SW 6.9 mph 6.9 mph 59 % 0 in
15:23 78.4 °F 61.9 °F 30.1 in WSW 3.5 mph 3.5 mph 57 % 0 in
15:28 79 °F 62.4 °F 30.1 in SSW 5.8 mph 5.8 mph 57 % 0 in
15:33 79.9 °F 62.8 °F 30.1 in SSW 5.8 mph 5.9 mph 56 % 0 in
15:38 79.7 °F 62.1 °F 30.1 in WSW 12.7 mph 12.7 mph 55 % 0 in
15:43 79 °F 61.3 °F 30.1 in West 6.9 mph 6.9 mph 55 % 0 in
15:48 79.7 °F 62.1 °F 30.1 in SW 7.1 mph 7.1 mph 55 % 0 in
15:49 79.7 °F 62.1 °F 30.1 in South 6.9 mph 6.9 mph 55 % 0 in
15:54 79 °F 61.3 °F 30.1 in SW 6.9 mph 6.9 mph 55 % 0 in
15:59 77.2 °F 59.7 °F 30.1 in SSW 10.4 mph 10.4 mph 55 % 0 in
16:04 77 °F 59.5 °F 30.1 in SW 9.2 mph 9.2 mph 55 % 0 in
16:09 77.7 °F 60.8 °F 30.1 in WSW 6.2 mph 6.2 mph 56 % 0 in
16:14 77.5 °F 60.6 °F 30.1 in SW 4.6 mph 4.6 mph 56 % 0 in
16:19 77.7 °F 60.8 °F 30.1 in South 4.6 mph 4.6 mph 56 % 0 in
16:24 77.2 °F 60.3 °F 30.1 in SSW 8.1 mph 8.1 mph 56 % 0 in
16:29 76.8 °F 60.4 °F 30.1 in WSW 6.9 mph 6.9 mph 57 % 0 in
16:34 77 °F 60.1 °F 30.1 in SW 6.4 mph 6.4 mph 56 % 0 in
16:39 75.7 °F 59.4 °F 30.1 in SSW 8.1 mph 8.1 mph 57 % 0 in
16:44 76.3 °F 60.4 °F 30.1 in SW 2.3 mph 2.3 mph 58 % 0 in
16:49 76.6 °F 60.8 °F 30.1 in WSW 2.3 mph 2.3 mph 58 % 0 in
16:54 76.8 °F 61 °F 30.1 in SSW 5.8 mph 5.8 mph 58 % 0 in
16:59 76.5 °F 60.6 °F 30.1 in SW 7.4 mph 7.4 mph 58 % 0 in
17:04 76.6 °F 60.8 °F 30.1 in SW 2.3 mph 2.3 mph 58 % 0 in
17:09 76.6 °F 60.8 °F 30.1 in ESE 6.9 mph 6.9 mph 58 % 0 in
17:14 76.3 °F 60.4 °F 30.1 in SSW 8.1 mph 8.1 mph 58 % 0 in
17:19 76.5 °F 60.6 °F 30.1 in South 5.8 mph 5.8 mph 58 % 0 in
17:24 76.6 °F 60.8 °F 30.1 in SSW 3.5 mph 3.5 mph 58 % 0 in
17:29 76.3 °F 61 °F 30.1 in SSW 4.6 mph 4.6 mph 59 % 0 in
17:34 76.1 °F 60.6 °F 30.1 in SSW 7.1 mph 7.1 mph 59 % 0 in
17:39 75.6 °F 60.6 °F 30.1 in SW 4.6 mph 4.6 mph 60 % 0 in
17:44 75.7 °F 61 °F 30.1 in WSW 4.6 mph 4.6 mph 60 % 0 in
17:49 75.7 °F 60.4 °F 30.1 in West 3.8 mph 3.8 mph 59 % 0 in
17:54 75.7 °F 61 °F 30.1 in SW 5.8 mph 5.8 mph 60 % 0 in
17:59 75.7 °F 61 °F 30.1 in SW 6.9 mph 6.9 mph 60 % 0 in
18:04 75.6 °F 61.2 °F 30.1 in South 5.8 mph 5.8 mph 61 % 0 in
18:09 75 °F 61.2 °F 30.1 in South 4.6 mph 4.6 mph 62 % 0 in
18:14 74.7 °F 61.2 °F 30.1 in SSE 2 mph 2 mph 63 % 0 in
18:19 74.7 °F 61.2 °F 30.1 in WNW 6 mph 6 mph 63 % 0 in
18:24 74.3 °F 61 °F 30.1 in SW 2.9 mph 2.9 mph 63 % 0 in
18:29 73.8 °F 60.4 °F 30.1 in WSW 4.6 mph 4.6 mph 63 % 0 in
18:34 73.2 °F 60.3 °F 30.1 in WSW 5.6 mph 5.6 mph 64 % 0 in
18:39 73 °F 60.1 °F 30.1 in WNW 4.6 mph 4.6 mph 64 % 0 in
18:44 73 °F 60.6 °F 30.1 in SW 5.8 mph 5.8 mph 65 % 0 in
18:49 73 °F 60.6 °F 30.1 in WSW 3.6 mph 3.6 mph 65 % 0 in
18:54 72.9 °F 60.4 °F 30.1 in SW 2 mph   65 % 0 in
18:59 72.9 °F 60.4 °F 30.1 in SW 4.6 mph 4.6 mph 65 % 0 in
19:04 72.7 °F 60.6 °F 30.1 in SSW 2.3 mph 2.3 mph 66 % 0 in
19:09 72.7 °F 60.6 °F 30.1 in SW 2.4 mph 2.4 mph 66 % 0 in
19:14 72.5 °F 60.4 °F 30.1 in SW 3.1 mph 3.1 mph 66 % 0 in
19:19 72.1 °F 60.3 °F 30.2 in SW 2.6 mph 2.6 mph 66 % 0 in
19:24 72 °F 60.1 °F 30.2 in WSW 3.1 mph 3.1 mph 66 % 0 in
19:29 71.8 °F 59.7 °F 30.2 in West 3.5 mph 3.5 mph 66 % 0 in
19:34 71.6 °F 60.1 °F 30.1 in SSW 2.3 mph 2.3 mph 67 % 0 in
19:39 71.2 °F 60.1 °F 30.1 in WSW 2.6 mph 2.6 mph 68 % 0 in
19:44 71.1 °F 60.4 °F 30.1 in SW 2.4 mph   69 % 0 in
19:49 70.7 °F 60.1 °F 30.1 in SW 3.5 mph 3.5 mph 69 % 0 in
19:54 70.5 °F 59.9 °F 30.1 in SW 2.3 mph 2.3 mph 69 % 0 in
19:59 70.3 °F 60.1 °F 30.1 in WSW 1.2 mph   70 % 0 in
20:04 70.3 °F 60.1 °F 30.1 in WSW 1.2 mph   70 % 0 in
20:09 70.2 °F 59.9 °F 30.1 in SW 3.5 mph 3.5 mph 70 % 0 in
20:14 70.2 °F 59.9 °F 30.1 in WSW 2.3 mph 2.3 mph 70 % 0 in
20:19 70 °F 60.1 °F 30.1 in WSW 2.3 mph 2.3 mph 71 % 0 in
20:24 69.8 °F 60.1 °F 30.1 in SW 2.3 mph 2.3 mph 71 % 0 in
20:29 69.6 °F 59.7 °F 30.1 in SW 2.3 mph 2.3 mph 71 % 0 in
20:34 69.4 °F 60.1 °F 30.1 in WSW 2.3 mph 2.3 mph 72 % 0 in
20:39 69.3 °F 59.7 °F 30.1 in SW 3.1 mph 3.1 mph 72 % 0 in
20:44 69.3 °F 60.3 °F 30.1 in WSW 2 mph 2 mph 73 % 0 in
20:49 69.1 °F 60.1 °F 30.1 in WSW 2.3 mph 2.3 mph 73 % 0 in
20:54 68.9 °F 59.9 °F 30.1 in WSW 2.3 mph 2.3 mph 73 % 0 in
20:59 68.9 °F 59.9 °F 30.1 in WSW 2.3 mph 2.3 mph 73 % 0 in
21:04 68.7 °F 59.7 °F 30.2 in WSW 2.3 mph 2.3 mph 73 % 0 in
21:09 68.7 °F 60.1 °F 30.2 in SW 2.3 mph 2.3 mph 74 % 0 in
21:14 68.5 °F 59.9 °F 30.2 in WSW 2.3 mph 2.3 mph 74 % 0 in
21:19 68.4 °F 60.1 °F 30.2 in SW 2.3 mph 2.3 mph 75 % 0 in
21:24 68.2 °F 60.1 °F 30.2 in SW 1.2 mph 1.2 mph 75 % 0 in
21:29 68.2 °F 60.1 °F 30.2 in SW 2.3 mph 2.3 mph 75 % 0 in
21:34 67.8 °F 60.1 °F 30.2 in WSW 2.3 mph 2.3 mph 76 % 0 in
21:39 67.6 °F 59.7 °F 30.2 in SW 2.3 mph 2.4 mph 76 % 0 in
21:44 67.6 °F 59.7 °F 30.2 in SW 2.3 mph 2.3 mph 76 % 0 in
21:49 67.5 °F 60.1 °F 30.2 in SW 2.6 mph 2.6 mph 77 % 0 in
21:54 67.3 °F 59.7 °F 30.2 in SW 2.3 mph 2.3 mph 77 % 0 in
21:59 67.3 °F 59.7 °F 30.2 in WSW 2.3 mph 2.3 mph 77 % 0 in
22:04 67.1 °F 59.5 °F 30.2 in SW 2.3 mph 2.3 mph 77 % 0 in
22:09 67.1 °F 59.5 °F 30.2 in WSW 2.3 mph 2.3 mph 77 % 0 in
22:14 66.9 °F 59.7 °F 30.2 in WSW 1.6 mph 1.6 mph 78 % 0 in
22:19 66.9 °F 59.7 °F 30.2 in WSW 1.2 mph 1.2 mph 78 % 0 in
22:24 66.7 °F 60.1 °F 30.2 in WSW 1.2 mph   79 % 0 in
22:29 66.7 °F 60.1 °F 30.2 in Calm     79 % 0 in
22:34 66.6 °F 59.7 °F 30.2 in WSW 0.9 mph   79 % 0 in
22:39 66.7 °F 60.4 °F 30.2 in WSW 1.2 mph   80 % 0 in
22:44 66.6 °F 60.3 °F 30.2 in Calm     80 % 0 in
22:49 66.6 °F 60.3 °F 30.2 in Calm     80 % 0 in
22:54 66.4 °F 60.4 °F 30.2 in Calm     81 % 0 in
22:59 66.4 °F 60.4 °F 30.2 in Calm     81 % 0 in
23:04 66.4 °F 60.4 °F 30.2 in Calm     81 % 0 in
23:09 66.2 °F 60.3 °F 30.2 in Calm     81 % 0 in
23:14 66.2 °F 60.3 °F 30.2 in Calm     81 % 0 in
23:19 66.2 °F 60.4 °F 30.2 in Calm     82 % 0 in
23:24 66.2 °F 60.4 °F 30.2 in Calm     82 % 0 in
23:29 65.8 °F 60.4 °F 30.2 in Calm     83 % 0 in
23:35 65.8 °F 60.4 °F 30.2 in Calm     83 % 0 in
23:39 65.7 °F 60.4 °F 30.2 in Calm     83 % 0 in
23:45 65.7 °F 60.4 °F 30.2 in Calm     83 % 0 in
23:50 65.5 °F 60.3 °F 30.2 in WSW 0.9 mph   83 % 0 in
23:55 65.5 °F 60.4 °F 30.2 in Calm     84 % 0 in
Meteo Sesrovires
Elogis d' Weather Underground - 3.25 mb

Guio original per  Jim McMurry - jmcmurry@mwt.net Adaptat per a la plantilla per  Wim van der Kuil - Leuven-Template.eu

Trobareu la nostra informacio del temps tambe a:

Weather Underground

AWEKAS